sensor_id;sensor_type;location;lat;lon;timestamp;pressure;altitude;pressure_sealevel;temperature
40199;BMP280;25906;43.536;26.068;2024-01-07T00:00:45;97641.63;;;12.71
40199;BMP280;25906;43.536;26.068;2024-01-07T00:03:30;97646.69;;;12.69
40199;BMP280;25906;43.536;26.068;2024-01-07T00:06:15;97643.66;;;12.76
40199;BMP280;25906;43.536;26.068;2024-01-07T00:09:01;97639.31;;;12.79
40199;BMP280;25906;43.536;26.068;2024-01-07T00:11:46;97633.75;;;12.77
40199;BMP280;25906;43.536;26.068;2024-01-07T00:14:31;97636.22;;;12.80
40199;BMP280;25906;43.536;26.068;2024-01-07T00:17:17;97634.59;;;12.68
40199;BMP280;25906;43.536;26.068;2024-01-07T00:20:02;97618.09;;;12.79
40199;BMP280;25906;43.536;26.068;2024-01-07T00:22:48;97618.28;;;12.75
40199;BMP280;25906;43.536;26.068;2024-01-07T00:25:33;97607.44;;;12.59
40199;BMP280;25906;43.536;26.068;2024-01-07T00:28:19;97605.53;;;12.59
40199;BMP280;25906;43.536;26.068;2024-01-07T00:31:04;97596.66;;;12.47
40199;BMP280;25906;43.536;26.068;2024-01-07T00:33:52;97596.31;;;12.40
40199;BMP280;25906;43.536;26.068;2024-01-07T00:36:37;97589.59;;;12.44
40199;BMP280;25906;43.536;26.068;2024-01-07T00:39:25;97606.59;;;12.52
40199;BMP280;25906;43.536;26.068;2024-01-07T00:42:13;97609.53;;;12.54
40199;BMP280;25906;43.536;26.068;2024-01-07T00:45:02;97602.69;;;12.63
40199;BMP280;25906;43.536;26.068;2024-01-07T00:47:47;97599.50;;;12.79
40199;BMP280;25906;43.536;26.068;2024-01-07T00:50:33;97593.31;;;12.82
40199;BMP280;25906;43.536;26.068;2024-01-07T00:53:18;97588.72;;;12.82
40199;BMP280;25906;43.536;26.068;2024-01-07T00:56:04;97577.88;;;12.66
40199;BMP280;25906;43.536;26.068;2024-01-07T00:58:49;97573.03;;;12.84
40199;BMP280;25906;43.536;26.068;2024-01-07T01:01:38;97572.97;;;12.79
40199;BMP280;25906;43.536;26.068;2024-01-07T01:04:32;97570.44;;;12.70
40199;BMP280;25906;43.536;26.068;2024-01-07T01:07:17;97559.81;;;12.70
40199;BMP280;25906;43.536;26.068;2024-01-07T01:10:06;97555.44;;;12.67
40199;BMP280;25906;43.536;26.068;2024-01-07T01:12:51;97554.72;;;12.51
40199;BMP280;25906;43.536;26.068;2024-01-07T01:15:39;97559.50;;;12.47
40199;BMP280;25906;43.536;26.068;2024-01-07T01:18:24;97550.75;;;12.41
40199;BMP280;25906;43.536;26.068;2024-01-07T01:21:09;97552.22;;;12.28
40199;BMP280;25906;43.536;26.068;2024-01-07T01:23:58;97542.34;;;12.28
40199;BMP280;25906;43.536;26.068;2024-01-07T01:26:43;97538.38;;;12.38
40199;BMP280;25906;43.536;26.068;2024-01-07T01:29:29;97532.56;;;12.34
40199;BMP280;25906;43.536;26.068;2024-01-07T01:32:14;97539.69;;;12.28
40199;BMP280;25906;43.536;26.068;2024-01-07T01:35:00;97536.91;;;12.37
40199;BMP280;25906;43.536;26.068;2024-01-07T01:37:45;97530.50;;;12.44
40199;BMP280;25906;43.536;26.068;2024-01-07T01:40:30;97525.53;;;12.51
40199;BMP280;25906;43.536;26.068;2024-01-07T01:43:22;97518.66;;;12.60
40199;BMP280;25906;43.536;26.068;2024-01-07T01:46:07;97523.72;;;12.58
40199;BMP280;25906;43.536;26.068;2024-01-07T01:48:52;97521.19;;;12.69
40199;BMP280;25906;43.536;26.068;2024-01-07T01:51:38;97533.38;;;12.61
40199;BMP280;25906;43.536;26.068;2024-01-07T01:54:23;97530.31;;;12.47
40199;BMP280;25906;43.536;26.068;2024-01-07T01:57:09;97520.22;;;12.51
40199;BMP280;25906;43.536;26.068;2024-01-07T01:59:58;97522.88;;;12.51
40199;BMP280;25906;43.536;26.068;2024-01-07T02:02:48;97522.81;;;12.46
40199;BMP280;25906;43.536;26.068;2024-01-07T02:05:34;97509.84;;;12.48
40199;BMP280;25906;43.536;26.068;2024-01-07T02:08:19;97525.44;;;12.61
40199;BMP280;25906;43.536;26.068;2024-01-07T02:11:18;97515.53;;;12.61
40199;BMP280;25906;43.536;26.068;2024-01-07T02:14:09;97509.41;;;12.70
40199;BMP280;25906;43.536;26.068;2024-01-07T02:16:57;97497.16;;;12.78
40199;BMP280;25906;43.536;26.068;2024-01-07T02:19:42;97488.34;;;12.86
40199;BMP280;25906;43.536;26.068;2024-01-07T02:22:28;97487.50;;;12.95
40199;BMP280;25906;43.536;26.068;2024-01-07T02:25:13;97480.09;;;13.04
40199;BMP280;25906;43.536;26.068;2024-01-07T02:27:58;97473.84;;;13.08
40199;BMP280;25906;43.536;26.068;2024-01-07T02:30:44;97474.69;;;13.19
40199;BMP280;25906;43.536;26.068;2024-01-07T02:33:29;97461.69;;;13.21
40199;BMP280;25906;43.536;26.068;2024-01-07T02:36:15;97455.28;;;13.33
40199;BMP280;25906;43.536;26.068;2024-01-07T02:39:01;97440.69;;;13.23
40199;BMP280;25906;43.536;26.068;2024-01-07T02:41:46;97439.44;;;13.19
40199;BMP280;25906;43.536;26.068;2024-01-07T02:44:32;97425.44;;;13.18
40199;BMP280;25906;43.536;26.068;2024-01-07T02:47:20;97435.16;;;13.52
40199;BMP280;25906;43.536;26.068;2024-01-07T02:50:05;97421.88;;;13.52
40199;BMP280;25906;43.536;26.068;2024-01-07T02:52:51;97425.94;;;13.48
40199;BMP280;25906;43.536;26.068;2024-01-07T02:55:36;97432.03;;;13.54
40199;BMP280;25906;43.536;26.068;2024-01-07T02:58:22;97432.72;;;13.49
40199;BMP280;25906;43.536;26.068;2024-01-07T03:01:13;97418.38;;;13.41
40199;BMP280;25906;43.536;26.068;2024-01-07T03:03:58;97408.19;;;13.34
40199;BMP280;25906;43.536;26.068;2024-01-07T03:06:44;97390.75;;;13.27
40199;BMP280;25906;43.536;26.068;2024-01-07T03:09:29;97394.75;;;13.17
40199;BMP280;25906;43.536;26.068;2024-01-07T03:12:15;97412.09;;;13.13
40199;BMP280;25906;43.536;26.068;2024-01-07T03:15:03;97395.75;;;12.94
40199;BMP280;25906;43.536;26.068;2024-01-07T03:17:49;97402.63;;;13.06
40199;BMP280;25906;43.536;26.068;2024-01-07T03:20:37;97411.41;;;12.92
40199;BMP280;25906;43.536;26.068;2024-01-07T03:23:22;97412.19;;;12.72
40199;BMP280;25906;43.536;26.068;2024-01-07T03:26:08;97406.53;;;12.65
40199;BMP280;25906;43.536;26.068;2024-01-07T03:28:53;97388.94;;;12.67
40199;BMP280;25906;43.536;26.068;2024-01-07T03:31:39;97376.69;;;12.70
40199;BMP280;25906;43.536;26.068;2024-01-07T03:34:24;97370.84;;;12.66
40199;BMP280;25906;43.536;26.068;2024-01-07T03:37:10;97370.84;;;12.66
40199;BMP280;25906;43.536;26.068;2024-01-07T03:39:55;97380.66;;;12.60
40199;BMP280;25906;43.536;26.068;2024-01-07T03:42:46;97374.97;;;12.46
40199;BMP280;25906;43.536;26.068;2024-01-07T03:45:33;97388.94;;;12.41
40199;BMP280;25906;43.536;26.068;2024-01-07T03:48:18;97394.22;;;12.41
40199;BMP280;25906;43.536;26.068;2024-01-07T03:51:08;97371.81;;;12.22
40199;BMP280;25906;43.536;26.068;2024-01-07T03:53:54;97355.75;;;12.11
40199;BMP280;25906;43.536;26.068;2024-01-07T03:56:39;97366.22;;;12.00
40199;BMP280;25906;43.536;26.068;2024-01-07T03:59:24;97376.59;;;12.03
40199;BMP280;25906;43.536;26.068;2024-01-07T04:02:10;97373.59;;;11.96
40199;BMP280;25906;43.536;26.068;2024-01-07T04:04:56;97354.72;;;11.88
40199;BMP280;25906;43.536;26.068;2024-01-07T04:07:42;97346.53;;;11.86
40199;BMP280;25906;43.536;26.068;2024-01-07T04:10:28;97347.63;;;11.80
40199;BMP280;25906;43.536;26.068;2024-01-07T04:13:14;97341.75;;;11.90
40199;BMP280;25906;43.536;26.068;2024-01-07T04:15:59;97347.31;;;11.92
40199;BMP280;25906;43.536;26.068;2024-01-07T04:18:45;97340.84;;;11.93
40199;BMP280;25906;43.536;26.068;2024-01-07T04:21:33;97328.47;;;11.90
40199;BMP280;25906;43.536;26.068;2024-01-07T04:24:19;97333.69;;;11.99
40199;BMP280;25906;43.536;26.068;2024-01-07T04:27:04;97319.97;;;12.01
40199;BMP280;25906;43.536;26.068;2024-01-07T04:29:55;97319.28;;;12.06
40199;BMP280;25906;43.536;26.068;2024-01-07T04:32:43;97324.47;;;12.15
40199;BMP280;25906;43.536;26.068;2024-01-07T04:35:31;97310.06;;;12.22
40199;BMP280;25906;43.536;26.068;2024-01-07T04:38:17;97306.03;;;12.26
40199;BMP280;25906;43.536;26.068;2024-01-07T04:41:02;97299.00;;;12.23
40199;BMP280;25906;43.536;26.068;2024-01-07T04:43:47;97285.47;;;12.21
40199;BMP280;25906;43.536;26.068;2024-01-07T04:46:39;97284.53;;;12.24
40199;BMP280;25906;43.536;26.068;2024-01-07T04:49:24;97272.53;;;12.29
40199;BMP280;25906;43.536;26.068;2024-01-07T04:52:09;97283.28;;;12.20
40199;BMP280;25906;43.536;26.068;2024-01-07T04:54:56;97292.03;;;12.26
40199;BMP280;25906;43.536;26.068;2024-01-07T04:57:44;97292.53;;;12.30
40199;BMP280;25906;43.536;26.068;2024-01-07T05:00:36;97287.56;;;12.37
40199;BMP280;25906;43.536;26.068;2024-01-07T05:03:21;97279.88;;;12.39
40199;BMP280;25906;43.536;26.068;2024-01-07T05:06:10;97272.41;;;12.43
40199;BMP280;25906;43.536;26.068;2024-01-07T05:08:55;97257.19;;;12.38
40199;BMP280;25906;43.536;26.068;2024-01-07T05:11:43;97236.72;;;12.39
40199;BMP280;25906;43.536;26.068;2024-01-07T05:14:29;97233.28;;;12.33
40199;BMP280;25906;43.536;26.068;2024-01-07T05:17:14;97226.38;;;12.41
40199;BMP280;25906;43.536;26.068;2024-01-07T05:19:59;97224.50;;;12.47
40199;BMP280;25906;43.536;26.068;2024-01-07T05:22:45;97220.66;;;12.48
40199;BMP280;25906;43.536;26.068;2024-01-07T05:25:30;97222.56;;;12.47
40199;BMP280;25906;43.536;26.068;2024-01-07T05:28:16;97208.13;;;12.48
40199;BMP280;25906;43.536;26.068;2024-01-07T05:31:13;97208.34;;;12.50
40199;BMP280;25906;43.536;26.068;2024-01-07T05:33:58;97196.53;;;12.51
40199;BMP280;25906;43.536;26.068;2024-01-07T05:36:44;97182.78;;;12.47
40199;BMP280;25906;43.536;26.068;2024-01-07T05:39:32;97189.78;;;12.50
40199;BMP280;25906;43.536;26.068;2024-01-07T05:42:17;97180.13;;;12.47
40199;BMP280;25906;43.536;26.068;2024-01-07T05:45:04;97177.19;;;12.45
40199;BMP280;25906;43.536;26.068;2024-01-07T05:47:49;97167.75;;;12.39
40199;BMP280;25906;43.536;26.068;2024-01-07T05:50:35;97159.06;;;12.38
40199;BMP280;25906;43.536;26.068;2024-01-07T05:53:20;97158.31;;;12.38
40199;BMP280;25906;43.536;26.068;2024-01-07T05:56:05;97147.25;;;12.39
40199;BMP280;25906;43.536;26.068;2024-01-07T05:58:51;97124.09;;;12.40
40199;BMP280;25906;43.536;26.068;2024-01-07T06:01:36;97119.09;;;12.47
40199;BMP280;25906;43.536;26.068;2024-01-07T06:04:21;97124.13;;;12.45
40199;BMP280;25906;43.536;26.068;2024-01-07T06:07:07;97101.16;;;12.37
40199;BMP280;25906;43.536;26.068;2024-01-07T06:09:55;97088.47;;;12.46
40199;BMP280;25906;43.536;26.068;2024-01-07T06:12:43;97081.97;;;12.47
40199;BMP280;25906;43.536;26.068;2024-01-07T06:15:28;97078.56;;;12.47
40199;BMP280;25906;43.536;26.068;2024-01-07T06:18:14;97073.28;;;12.47
40199;BMP280;25906;43.536;26.068;2024-01-07T06:20:59;97075.44;;;12.43
40199;BMP280;25906;43.536;26.068;2024-01-07T06:23:44;97072.53;;;12.46
40199;BMP280;25906;43.536;26.068;2024-01-07T06:26:30;97057.34;;;12.41
40199;BMP280;25906;43.536;26.068;2024-01-07T06:29:15;97058.09;;;12.47
40199;BMP280;25906;43.536;26.068;2024-01-07T06:32:01;97054.44;;;12.45
40199;BMP280;25906;43.536;26.068;2024-01-07T06:34:52;97074.94;;;12.44
40199;BMP280;25906;43.536;26.068;2024-01-07T06:37:37;97089.38;;;12.43
40199;BMP280;25906;43.536;26.068;2024-01-07T06:40:23;97081.88;;;12.36
40199;BMP280;25906;43.536;26.068;2024-01-07T06:43:11;97076.78;;;12.33
40199;BMP280;25906;43.536;26.068;2024-01-07T06:45:56;97073.13;;;12.25
40199;BMP280;25906;43.536;26.068;2024-01-07T06:48:42;97086.59;;;12.21
40199;BMP280;25906;43.536;26.068;2024-01-07T06:51:27;97087.28;;;12.16
40199;BMP280;25906;43.536;26.068;2024-01-07T06:54:12;97075.75;;;12.19
40199;BMP280;25906;43.536;26.068;2024-01-07T06:56:58;97074.06;;;12.22
40199;BMP280;25906;43.536;26.068;2024-01-07T06:59:43;97057.41;;;12.16
40199;BMP280;25906;43.536;26.068;2024-01-07T07:02:28;97046.53;;;12.14
40199;BMP280;25906;43.536;26.068;2024-01-07T07:05:14;97062.94;;;12.18
40199;BMP280;25906;43.536;26.068;2024-01-07T07:08:02;97063.91;;;12.20
40199;BMP280;25906;43.536;26.068;2024-01-07T07:10:47;97034.06;;;12.25
40199;BMP280;25906;43.536;26.068;2024-01-07T07:13:33;97016.72;;;12.30
40199;BMP280;25906;43.536;26.068;2024-01-07T07:16:19;97026.13;;;12.31
40199;BMP280;25906;43.536;26.068;2024-01-07T07:19:06;97018.09;;;12.14
40199;BMP280;25906;43.536;26.068;2024-01-07T07:21:52;97032.88;;;12.26
40199;BMP280;25906;43.536;26.068;2024-01-07T07:24:40;97031.69;;;12.27
40199;BMP280;25906;43.536;26.068;2024-01-07T07:27:25;97029.75;;;12.28
40199;BMP280;25906;43.536;26.068;2024-01-07T07:30:13;97027.31;;;12.24
40199;BMP280;25906;43.536;26.068;2024-01-07T07:32:58;97031.25;;;12.34
40199;BMP280;25906;43.536;26.068;2024-01-07T07:35:44;97039.88;;;12.29
40199;BMP280;25906;43.536;26.068;2024-01-07T07:38:29;97044.94;;;12.27
40199;BMP280;25906;43.536;26.068;2024-01-07T07:41:15;97049.72;;;12.23
40199;BMP280;25906;43.536;26.068;2024-01-07T07:44:00;97038.13;;;12.21
40199;BMP280;25906;43.536;26.068;2024-01-07T07:46:45;97029.50;;;12.26
40199;BMP280;25906;43.536;26.068;2024-01-07T07:49:33;97022.75;;;12.30
40199;BMP280;25906;43.536;26.068;2024-01-07T07:52:20;97013.53;;;12.20
40199;BMP280;25906;43.536;26.068;2024-01-07T07:55:10;97001.97;;;12.23
40199;BMP280;25906;43.536;26.068;2024-01-07T07:57:56;97009.94;;;12.23
40199;BMP280;25906;43.536;26.068;2024-01-07T08:00:41;97002.53;;;12.27
40199;BMP280;25906;43.536;26.068;2024-01-07T08:03:30;97007.56;;;12.31
40199;BMP280;25906;43.536;26.068;2024-01-07T08:06:16;96995.50;;;12.30
40199;BMP280;25906;43.536;26.068;2024-01-07T08:09:02;97004.25;;;12.36
40199;BMP280;25906;43.536;26.068;2024-01-07T08:11:47;97032.28;;;12.48
40199;BMP280;25906;43.536;26.068;2024-01-07T08:14:33;97033.50;;;12.52
40199;BMP280;25906;43.536;26.068;2024-01-07T08:17:21;97029.47;;;12.63
40199;BMP280;25906;43.536;26.068;2024-01-07T08:20:11;97044.19;;;12.64
40199;BMP280;25906;43.536;26.068;2024-01-07T08:22:56;97039.88;;;12.66
40199;BMP280;25906;43.536;26.068;2024-01-07T08:25:41;97047.38;;;12.73
40199;BMP280;25906;43.536;26.068;2024-01-07T08:28:27;97064.50;;;12.78
40199;BMP280;25906;43.536;26.068;2024-01-07T08:31:12;97070.56;;;12.78
40199;BMP280;25906;43.536;26.068;2024-01-07T08:33:58;97050.06;;;12.84
40199;BMP280;25906;43.536;26.068;2024-01-07T08:36:43;97038.25;;;12.85
40199;BMP280;25906;43.536;26.068;2024-01-07T08:39:28;97040.09;;;13.33
40199;BMP280;25906;43.536;26.068;2024-01-07T08:42:15;97034.84;;;13.72
40199;BMP280;25906;43.536;26.068;2024-01-07T08:45:02;97035.56;;;14.05
40199;BMP280;25906;43.536;26.068;2024-01-07T08:47:49;97023.03;;;14.17
40199;BMP280;25906;43.536;26.068;2024-01-07T08:50:35;97029.50;;;14.33
40199;BMP280;25906;43.536;26.068;2024-01-07T08:53:21;97039.16;;;14.47
40199;BMP280;25906;43.536;26.068;2024-01-07T08:56:07;97046.16;;;14.44
40199;BMP280;25906;43.536;26.068;2024-01-07T08:58:53;97045.91;;;14.48
40199;BMP280;25906;43.536;26.068;2024-01-07T09:01:39;97049.53;;;14.50
40199;BMP280;25906;43.536;26.068;2024-01-07T09:04:24;97062.09;;;14.61
40199;BMP280;25906;43.536;26.068;2024-01-07T09:07:09;97061.84;;;14.59
40199;BMP280;25906;43.536;26.068;2024-01-07T09:09:55;97058.47;;;14.59
40199;BMP280;25906;43.536;26.068;2024-01-07T09:12:44;97058.47;;;14.64
40199;BMP280;25906;43.536;26.068;2024-01-07T09:15:32;97044.16;;;14.73
40199;BMP280;25906;43.536;26.068;2024-01-07T09:18:17;97044.81;;;14.84
40199;BMP280;25906;43.536;26.068;2024-01-07T09:21:03;97051.16;;;14.81
40199;BMP280;25906;43.536;26.068;2024-01-07T09:23:51;97060.44;;;14.52
40199;BMP280;25906;43.536;26.068;2024-01-07T09:26:42;97062.13;;;14.44
40199;BMP280;25906;43.536;26.068;2024-01-07T09:29:33;97049.94;;;14.71
40199;BMP280;25906;43.536;26.068;2024-01-07T09:32:19;97056.59;;;15.00
40199;BMP280;25906;43.536;26.068;2024-01-07T09:35:04;97046.88;;;15.14
40199;BMP280;25906;43.536;26.068;2024-01-07T09:37:50;97040.31;;;15.20
40199;BMP280;25906;43.536;26.068;2024-01-07T09:40:39;97044.53;;;14.99
40199;BMP280;25906;43.536;26.068;2024-01-07T09:43:24;97044.44;;;15.16
40199;BMP280;25906;43.536;26.068;2024-01-07T09:46:16;97051.03;;;15.50
40199;BMP280;25906;43.536;26.068;2024-01-07T09:49:01;97044.22;;;15.84
40199;BMP280;25906;43.536;26.068;2024-01-07T09:51:46;97044.16;;;15.90
40199;BMP280;25906;43.536;26.068;2024-01-07T09:54:35;97048.41;;;15.44
40199;BMP280;25906;43.536;26.068;2024-01-07T09:57:26;97043.19;;;15.57
40199;BMP280;25906;43.536;26.068;2024-01-07T10:00:15;97054.13;;;15.59
40199;BMP280;25906;43.536;26.068;2024-01-07T10:03:01;97051.34;;;15.71
40199;BMP280;25906;43.536;26.068;2024-01-07T10:05:48;97048.91;;;15.73
40199;BMP280;25906;43.536;26.068;2024-01-07T10:08:33;97056.97;;;15.61
40199;BMP280;25906;43.536;26.068;2024-01-07T10:11:19;97052.06;;;15.71
40199;BMP280;25906;43.536;26.068;2024-01-07T10:14:06;97051.88;;;15.28
40199;BMP280;25906;43.536;26.068;2024-01-07T10:16:54;97048.44;;;14.92
40199;BMP280;25906;43.536;26.068;2024-01-07T10:19:45;97062.06;;;14.72
40199;BMP280;25906;43.536;26.068;2024-01-07T10:22:33;97056.78;;;14.55
40199;BMP280;25906;43.536;26.068;2024-01-07T10:25:18;97055.84;;;14.36
40199;BMP280;25906;43.536;26.068;2024-01-07T10:28:04;97055.66;;;14.23
40199;BMP280;25906;43.536;26.068;2024-01-07T10:30:59;97058.53;;;14.14
40199;BMP280;25906;43.536;26.068;2024-01-07T10:33:47;97055.88;;;14.03
40199;BMP280;25906;43.536;26.068;2024-01-07T10:36:32;97054.19;;;14.05
40199;BMP280;25906;43.536;26.068;2024-01-07T10:39:17;97048.63;;;14.03
40199;BMP280;25906;43.536;26.068;2024-01-07T10:42:03;97045.03;;;14.01
40199;BMP280;25906;43.536;26.068;2024-01-07T10:44:49;97045.00;;;14.23
40199;BMP280;25906;43.536;26.068;2024-01-07T10:47:34;97054.41;;;14.30
40199;BMP280;25906;43.536;26.068;2024-01-07T10:50:21;97047.19;;;14.14
40199;BMP280;25906;43.536;26.068;2024-01-07T10:53:07;97044.53;;;14.14
40199;BMP280;25906;43.536;26.068;2024-01-07T10:55:54;97048.63;;;14.20
40199;BMP280;25906;43.536;26.068;2024-01-07T10:58:44;97052.72;;;14.32
40199;BMP280;25906;43.536;26.068;2024-01-07T11:01:30;97043.75;;;14.30
40199;BMP280;25906;43.536;26.068;2024-01-07T11:12:53;97045.25;;;14.03
40199;BMP280;25906;43.536;26.068;2024-01-07T11:18:33;97037.03;;;13.84
40199;BMP280;25906;43.536;26.068;2024-01-07T11:21:22;97038.25;;;13.67
40199;BMP280;25906;43.536;26.068;2024-01-07T11:24:09;97036.31;;;13.78
40199;BMP280;25906;43.536;26.068;2024-01-07T11:26:55;97041.16;;;13.80
40199;BMP280;25906;43.536;26.068;2024-01-07T11:29:52;97036.06;;;13.76
40199;BMP280;25906;43.536;26.068;2024-01-07T11:32:38;97029.78;;;13.79
40199;BMP280;25906;43.536;26.068;2024-01-07T11:38:28;97031.00;;;13.73
40199;BMP280;25906;43.536;26.068;2024-01-07T11:41:14;97031.72;;;13.62
40199;BMP280;25906;43.536;26.068;2024-01-07T11:44:00;97028.81;;;13.66
40199;BMP280;25906;43.536;26.068;2024-01-07T11:46:46;97025.44;;;13.82
40199;BMP280;25906;43.536;26.068;2024-01-07T11:49:32;97029.53;;;13.88
40199;BMP280;25906;43.536;26.068;2024-01-07T11:52:18;97033.41;;;13.98
40199;BMP280;25906;43.536;26.068;2024-01-07T11:55:04;97027.34;;;14.03
40199;BMP280;25906;43.536;26.068;2024-01-07T11:57:50;97019.81;;;14.19
40199;BMP280;25906;43.536;26.068;2024-01-07T12:00:36;97024.91;;;14.39
40199;BMP280;25906;43.536;26.068;2024-01-07T12:03:23;97026.97;;;14.74
40199;BMP280;25906;43.536;26.068;2024-01-07T12:06:08;97027.66;;;14.74
40199;BMP280;25906;43.536;26.068;2024-01-07T12:08:56;97025.94;;;14.88
40199;BMP280;25906;43.536;26.068;2024-01-07T12:11:48;97026.16;;;14.90
40199;BMP280;25906;43.536;26.068;2024-01-07T12:14:34;97024.16;;;15.01
40199;BMP280;25906;43.536;26.068;2024-01-07T12:17:19;97020.13;;;14.84
40199;BMP280;25906;43.536;26.068;2024-01-07T12:20:07;97024.72;;;14.83
40199;BMP280;25906;43.536;26.068;2024-01-07T12:22:56;97030.97;;;14.97
40199;BMP280;25906;43.536;26.068;2024-01-07T12:25:42;97033.44;;;14.84
40199;BMP280;25906;43.536;26.068;2024-01-07T12:28:27;97037.72;;;15.03
40199;BMP280;25906;43.536;26.068;2024-01-07T12:31:13;97030.03;;;14.89
40199;BMP280;25906;43.536;26.068;2024-01-07T12:33:59;97039.94;;;14.99
40199;BMP280;25906;43.536;26.068;2024-01-07T12:36:45;97032.22;;;14.85
40199;BMP280;25906;43.536;26.068;2024-01-07T12:39:31;97031.97;;;14.83
40199;BMP280;25906;43.536;26.068;2024-01-07T12:42:16;97038.00;;;14.94
40199;BMP280;25906;43.536;26.068;2024-01-07T12:45:04;97030.09;;;14.72
40199;BMP280;25906;43.536;26.068;2024-01-07T12:47:49;97034.94;;;14.79
40199;BMP280;25906;43.536;26.068;2024-01-07T12:50:34;97029.16;;;14.70
40199;BMP280;25906;43.536;26.068;2024-01-07T12:53:20;97040.34;;;14.57
40199;BMP280;25906;43.536;26.068;2024-01-07T12:56:08;97037.72;;;14.40
40199;BMP280;25906;43.536;26.068;2024-01-07T12:58:53;97038.25;;;14.17
40199;BMP280;25906;43.536;26.068;2024-01-07T13:01:39;97039.47;;;13.77
40199;BMP280;25906;43.536;26.068;2024-01-07T13:04:27;97035.09;;;13.46
40199;BMP280;25906;43.536;26.068;2024-01-07T13:07:16;97038.91;;;13.34
40199;BMP280;25906;43.536;26.068;2024-01-07T13:10:01;97038.66;;;13.26
40199;BMP280;25906;43.536;26.068;2024-01-07T13:12:48;97038.34;;;13.08
40199;BMP280;25906;43.536;26.068;2024-01-07T13:15:36;97036.13;;;12.89
40199;BMP280;25906;43.536;26.068;2024-01-07T13:18:22;97042.81;;;12.85
40199;BMP280;25906;43.536;26.068;2024-01-07T13:21:07;97039.94;;;12.77
40199;BMP280;25906;43.536;26.068;2024-01-07T13:23:56;97041.88;;;12.82
40199;BMP280;25906;43.536;26.068;2024-01-07T13:26:44;97047.38;;;12.73
40199;BMP280;25906;43.536;26.068;2024-01-07T13:29:30;97048.78;;;12.63
40199;BMP280;25906;43.536;26.068;2024-01-07T13:32:24;97041.56;;;12.64
40199;BMP280;25906;43.536;26.068;2024-01-07T13:35:10;97047.03;;;12.54
40199;BMP280;25906;43.536;26.068;2024-01-07T13:37:55;97045.31;;;12.51
40199;BMP280;25906;43.536;26.068;2024-01-07T13:40:41;97047.66;;;12.44
40199;BMP280;25906;43.536;26.068;2024-01-07T13:43:26;97048.41;;;12.44
40199;BMP280;25906;43.536;26.068;2024-01-07T13:46:14;97049.41;;;12.47
40199;BMP280;25906;43.536;26.068;2024-01-07T13:49:08;97048.41;;;12.44
40199;BMP280;25906;43.536;26.068;2024-01-07T13:51:54;97047.91;;;12.40
40199;BMP280;25906;43.536;26.068;2024-01-07T13:54:40;97049.38;;;12.41
40199;BMP280;25906;43.536;26.068;2024-01-07T13:57:25;97051.56;;;12.43
40199;BMP280;25906;43.536;26.068;2024-01-07T14:00:11;97053.41;;;12.37
40199;BMP280;25906;43.536;26.068;2024-01-07T14:03:03;97044.94;;;12.27
40199;BMP280;25906;43.536;26.068;2024-01-07T14:05:51;97049.75;;;12.29
40199;BMP280;25906;43.536;26.068;2024-01-07T14:08:37;97054.19;;;12.12
40199;BMP280;25906;43.536;26.068;2024-01-07T14:11:22;97053.75;;;12.13
40199;BMP280;25906;43.536;26.068;2024-01-07T14:14:07;97055.28;;;11.94
40199;BMP280;25906;43.536;26.068;2024-01-07T14:16:55;97056.91;;;11.86
40199;BMP280;25906;43.536;26.068;2024-01-07T14:19:41;97058.53;;;11.78
40199;BMP280;25906;43.536;26.068;2024-01-07T14:22:28;97057.97;;;11.74
40199;BMP280;25906;43.536;26.068;2024-01-07T14:25:16;97062.16;;;11.54
40199;BMP280;25906;43.536;26.068;2024-01-07T14:28:08;97067.44;;;11.54
40199;BMP280;25906;43.536;26.068;2024-01-07T14:30:53;97063.59;;;11.35
40199;BMP280;25906;43.536;26.068;2024-01-07T14:33:38;97078.50;;;11.33
40199;BMP280;25906;43.536;26.068;2024-01-07T14:36:30;97070.72;;;11.24
40199;BMP280;25906;43.536;26.068;2024-01-07T14:39:15;97064.94;;;11.25
40199;BMP280;25906;43.536;26.068;2024-01-07T14:42:12;97074.22;;;11.15
40199;BMP280;25906;43.536;26.068;2024-01-07T14:44:57;97068.19;;;11.15
40199;BMP280;25906;43.536;26.068;2024-01-07T14:47:43;97069.03;;;11.06
40199;BMP280;25906;43.536;26.068;2024-01-07T14:50:28;97070.16;;;10.99
40199;BMP280;25906;43.536;26.068;2024-01-07T14:53:13;97064.78;;;10.94
40199;BMP280;25906;43.536;26.068;2024-01-07T14:56:01;97074.38;;;10.91
40199;BMP280;25906;43.536;26.068;2024-01-07T14:58:47;97065.31;;;10.98
40199;BMP280;25906;43.536;26.068;2024-01-07T15:01:32;97067.94;;;10.78
40199;BMP280;25906;43.536;26.068;2024-01-07T15:04:17;97074.81;;;10.70
40199;BMP280;25906;43.536;26.068;2024-01-07T15:07:05;97082.94;;;10.66
40199;BMP280;25906;43.536;26.068;2024-01-07T15:09:50;97078.47;;;10.57
40199;BMP280;25906;43.536;26.068;2024-01-07T15:12:35;97077.28;;;10.58
40199;BMP280;25906;43.536;26.068;2024-01-07T15:15:24;97077.94;;;10.53
40199;BMP280;25906;43.536;26.068;2024-01-07T15:18:14;97084.88;;;10.51
40199;BMP280;25906;43.536;26.068;2024-01-07T15:20:59;97084.53;;;10.43
40199;BMP280;25906;43.536;26.068;2024-01-07T15:23:47;97096.66;;;10.35
40199;BMP280;25906;43.536;26.068;2024-01-07T15:26:35;97078.44;;;10.23
40199;BMP280;25906;43.536;26.068;2024-01-07T15:29:23;97092.00;;;10.30
40199;BMP280;25906;43.536;26.068;2024-01-07T15:32:12;97087.34;;;10.25
40199;BMP280;25906;43.536;26.068;2024-01-07T15:34:57;97090.75;;;10.11
40199;BMP280;25906;43.536;26.068;2024-01-07T15:37:42;97088.09;;;10.11
40199;BMP280;25906;43.536;26.068;2024-01-07T15:40:28;97094.00;;;10.06
40199;BMP280;25906;43.536;26.068;2024-01-07T15:43:16;97091.56;;;10.02
40199;BMP280;25906;43.536;26.068;2024-01-07T15:46:04;97093.53;;;9.93
40199;BMP280;25906;43.536;26.068;2024-01-07T15:48:49;97092.97;;;9.89
40199;BMP280;25906;43.536;26.068;2024-01-07T15:51:34;97100.06;;;9.83
40199;BMP280;25906;43.536;26.068;2024-01-07T15:54:20;97092.78;;;9.78
40199;BMP280;25906;43.536;26.068;2024-01-07T15:57:08;97090.31;;;9.74
40199;BMP280;25906;43.536;26.068;2024-01-07T15:59:59;97098.22;;;9.74